sensor_id;sensor_type;location;lat;lon;timestamp;P1;durP1;ratioP1;P2;durP2;ratioP2
20653;SDS011;21083;50.898;4.902;2023-05-28T00:01:15;21.63;;;6.55;;
20653;SDS011;21083;50.898;4.902;2023-05-28T00:03:42;16.85;;;5.70;;
20653;SDS011;21083;50.898;4.902;2023-05-28T00:06:09;19.45;;;6.25;;
20653;SDS011;21083;50.898;4.902;2023-05-28T00:08:37;18.77;;;6.10;;
20653;SDS011;21083;50.898;4.902;2023-05-28T00:11:05;18.33;;;5.78;;
20653;SDS011;21083;50.898;4.902;2023-05-28T00:13:32;18.33;;;6.00;;
20653;SDS011;21083;50.898;4.902;2023-05-28T00:15:59;18.50;;;6.28;;
20653;SDS011;21083;50.898;4.902;2023-05-28T00:18:26;18.30;;;6.32;;
20653;SDS011;21083;50.898;4.902;2023-05-28T00:20:56;19.33;;;5.90;;
20653;SDS011;21083;50.898;4.902;2023-05-28T00:23:23;19.23;;;6.35;;
20653;SDS011;21083;50.898;4.902;2023-05-28T00:25:50;20.60;;;6.75;;
20653;SDS011;21083;50.898;4.902;2023-05-28T00:28:18;18.35;;;6.07;;
20653;SDS011;21083;50.898;4.902;2023-05-28T00:30:45;16.02;;;5.82;;
20653;SDS011;21083;50.898;4.902;2023-05-28T00:33:12;16.17;;;6.00;;
20653;SDS011;21083;50.898;4.902;2023-05-28T00:35:39;20.85;;;6.53;;
20653;SDS011;21083;50.898;4.902;2023-05-28T00:38:06;21.67;;;6.97;;
20653;SDS011;21083;50.898;4.902;2023-05-28T00:40:35;25.25;;;6.18;;
20653;SDS011;21083;50.898;4.902;2023-05-28T00:43:02;18.17;;;6.18;;
20653;SDS011;21083;50.898;4.902;2023-05-28T00:45:30;16.65;;;6.95;;
20653;SDS011;21083;50.898;4.902;2023-05-28T00:47:57;16.33;;;6.78;;
20653;SDS011;21083;50.898;4.902;2023-05-28T00:50:24;19.98;;;6.13;;
20653;SDS011;21083;50.898;4.902;2023-05-28T00:52:53;24.90;;;8.85;;
20653;SDS011;21083;50.898;4.902;2023-05-28T00:55:21;18.58;;;6.50;;
20653;SDS011;21083;50.898;4.902;2023-05-28T00:57:49;19.95;;;6.35;;
20653;SDS011;21083;50.898;4.902;2023-05-28T01:00:19;23.40;;;7.05;;
20653;SDS011;21083;50.898;4.902;2023-05-28T01:02:47;20.50;;;7.25;;
20653;SDS011;21083;50.898;4.902;2023-05-28T01:05:14;20.20;;;6.30;;
20653;SDS011;21083;50.898;4.902;2023-05-28T01:07:42;18.70;;;5.88;;
20653;SDS011;21083;50.898;4.902;2023-05-28T01:10:09;19.35;;;6.88;;
20653;SDS011;21083;50.898;4.902;2023-05-28T01:12:36;17.23;;;6.10;;
20653;SDS011;21083;50.898;4.902;2023-05-28T01:15:06;18.38;;;6.75;;
20653;SDS011;21083;50.898;4.902;2023-05-28T01:17:34;19.52;;;6.50;;
20653;SDS011;21083;50.898;4.902;2023-05-28T01:20:05;19.30;;;6.93;;
20653;SDS011;21083;50.898;4.902;2023-05-28T01:22:38;28.23;;;6.80;;
20653;SDS011;21083;50.898;4.902;2023-05-28T01:25:14;22.02;;;7.15;;
20653;SDS011;21083;50.898;4.902;2023-05-28T01:27:41;21.50;;;7.20;;
20653;SDS011;21083;50.898;4.902;2023-05-28T01:30:09;21.17;;;7.20;;
20653;SDS011;21083;50.898;4.902;2023-05-28T01:32:37;24.13;;;7.55;;
20653;SDS011;21083;50.898;4.902;2023-05-28T01:35:05;20.35;;;7.65;;
20653;SDS011;21083;50.898;4.902;2023-05-28T01:37:35;20.48;;;7.43;;
20653;SDS011;21083;50.898;4.902;2023-05-28T01:40:05;24.25;;;7.68;;
20653;SDS011;21083;50.898;4.902;2023-05-28T01:42:36;20.05;;;7.40;;
20653;SDS011;21083;50.898;4.902;2023-05-28T01:45:04;17.58;;;6.95;;
20653;SDS011;21083;50.898;4.902;2023-05-28T01:47:33;21.15;;;7.70;;
20653;SDS011;21083;50.898;4.902;2023-05-28T01:50:01;19.38;;;7.55;;
20653;SDS011;21083;50.898;4.902;2023-05-28T01:52:29;19.42;;;7.57;;
20653;SDS011;21083;50.898;4.902;2023-05-28T01:54:56;20.63;;;7.82;;
20653;SDS011;21083;50.898;4.902;2023-05-28T01:57:23;23.70;;;7.38;;
20653;SDS011;21083;50.898;4.902;2023-05-28T01:59:51;24.17;;;7.72;;
20653;SDS011;21083;50.898;4.902;2023-05-28T02:02:18;21.73;;;7.78;;
20653;SDS011;21083;50.898;4.902;2023-05-28T02:04:47;25.00;;;7.90;;
20653;SDS011;21083;50.898;4.902;2023-05-28T02:07:14;20.92;;;7.80;;
20653;SDS011;21083;50.898;4.902;2023-05-28T02:09:42;17.65;;;7.00;;
20653;SDS011;21083;50.898;4.902;2023-05-28T02:12:10;21.60;;;7.53;;
20653;SDS011;21083;50.898;4.902;2023-05-28T02:14:37;16.80;;;7.20;;
20653;SDS011;21083;50.898;4.902;2023-05-28T02:17:05;18.40;;;7.13;;
20653;SDS011;21083;50.898;4.902;2023-05-28T02:19:32;21.95;;;7.88;;
20653;SDS011;21083;50.898;4.902;2023-05-28T02:21:59;21.15;;;7.40;;
20653;SDS011;21083;50.898;4.902;2023-05-28T02:24:26;20.48;;;7.55;;
20653;SDS011;21083;50.898;4.902;2023-05-28T02:26:53;17.15;;;7.22;;
20653;SDS011;21083;50.898;4.902;2023-05-28T02:29:20;20.20;;;7.40;;
20653;SDS011;21083;50.898;4.902;2023-05-28T02:31:47;19.40;;;7.35;;
20653;SDS011;21083;50.898;4.902;2023-05-28T02:34:15;21.60;;;7.07;;
20653;SDS011;21083;50.898;4.902;2023-05-28T02:36:42;19.10;;;7.80;;
20653;SDS011;21083;50.898;4.902;2023-05-28T02:39:09;21.85;;;8.20;;
20653;SDS011;21083;50.898;4.902;2023-05-28T02:41:36;20.70;;;7.65;;
20653;SDS011;21083;50.898;4.902;2023-05-28T02:44:03;20.70;;;7.53;;
20653;SDS011;21083;50.898;4.902;2023-05-28T02:46:30;20.77;;;7.28;;
20653;SDS011;21083;50.898;4.902;2023-05-28T02:48:57;30.13;;;9.07;;
20653;SDS011;21083;50.898;4.902;2023-05-28T02:51:25;24.35;;;8.23;;
20653;SDS011;21083;50.898;4.902;2023-05-28T02:53:52;26.48;;;9.38;;
20653;SDS011;21083;50.898;4.902;2023-05-28T02:56:19;23.73;;;7.97;;
20653;SDS011;21083;50.898;4.902;2023-05-28T02:58:46;19.98;;;8.82;;
20653;SDS011;21083;50.898;4.902;2023-05-28T03:01:13;22.38;;;9.00;;
20653;SDS011;21083;50.898;4.902;2023-05-28T03:03:40;22.23;;;9.25;;
20653;SDS011;21083;50.898;4.902;2023-05-28T03:06:07;23.38;;;9.30;;
20653;SDS011;21083;50.898;4.902;2023-05-28T03:08:36;24.63;;;8.88;;
20653;SDS011;21083;50.898;4.902;2023-05-28T03:11:03;19.70;;;9.32;;
20653;SDS011;21083;50.898;4.902;2023-05-28T03:13:29;20.30;;;9.07;;
20653;SDS011;21083;50.898;4.902;2023-05-28T03:15:56;31.83;;;9.43;;
20653;SDS011;21083;50.898;4.902;2023-05-28T03:18:23;23.00;;;9.65;;
20653;SDS011;21083;50.898;4.902;2023-05-28T03:20:50;19.33;;;9.48;;
20653;SDS011;21083;50.898;4.902;2023-05-28T03:23:18;24.52;;;10.07;;
20653;SDS011;21083;50.898;4.902;2023-05-28T03:25:47;21.42;;;10.15;;
20653;SDS011;21083;50.898;4.902;2023-05-28T03:28:13;23.83;;;9.18;;
20653;SDS011;21083;50.898;4.902;2023-05-28T03:30:41;20.88;;;9.48;;
20653;SDS011;21083;50.898;4.902;2023-05-28T03:33:08;26.65;;;10.00;;
20653;SDS011;21083;50.898;4.902;2023-05-28T03:35:35;23.05;;;8.68;;
20653;SDS011;21083;50.898;4.902;2023-05-28T03:38:01;28.77;;;9.98;;
20653;SDS011;21083;50.898;4.902;2023-05-28T03:40:28;24.42;;;9.50;;
20653;SDS011;21083;50.898;4.902;2023-05-28T03:42:57;26.40;;;10.00;;
20653;SDS011;21083;50.898;4.902;2023-05-28T03:45:24;20.27;;;9.68;;
20653;SDS011;21083;50.898;4.902;2023-05-28T03:47:51;25.40;;;9.98;;
20653;SDS011;21083;50.898;4.902;2023-05-28T03:50:18;25.00;;;10.20;;
20653;SDS011;21083;50.898;4.902;2023-05-28T03:52:45;25.05;;;10.48;;
20653;SDS011;21083;50.898;4.902;2023-05-28T03:55:12;22.85;;;10.23;;
20653;SDS011;21083;50.898;4.902;2023-05-28T03:57:40;27.10;;;10.25;;
20653;SDS011;21083;50.898;4.902;2023-05-28T04:00:09;23.05;;;10.48;;
20653;SDS011;21083;50.898;4.902;2023-05-28T04:02:37;25.45;;;10.00;;
20653;SDS011;21083;50.898;4.902;2023-05-28T04:05:04;26.13;;;9.93;;
20653;SDS011;21083;50.898;4.902;2023-05-28T04:07:32;29.73;;;10.38;;
20653;SDS011;21083;50.898;4.902;2023-05-28T04:09:59;26.15;;;11.32;;
20653;SDS011;21083;50.898;4.902;2023-05-28T04:12:26;25.77;;;10.93;;
20653;SDS011;21083;50.898;4.902;2023-05-28T04:14:53;21.88;;;9.93;;
20653;SDS011;21083;50.898;4.902;2023-05-28T04:17:22;25.38;;;11.15;;
20653;SDS011;21083;50.898;4.902;2023-05-28T04:19:49;25.67;;;10.50;;
20653;SDS011;21083;50.898;4.902;2023-05-28T04:22:16;29.77;;;10.73;;
20653;SDS011;21083;50.898;4.902;2023-05-28T04:24:44;27.02;;;11.55;;
20653;SDS011;21083;50.898;4.902;2023-05-28T04:27:12;29.05;;;12.05;;
20653;SDS011;21083;50.898;4.902;2023-05-28T04:29:39;26.13;;;10.52;;
20653;SDS011;21083;50.898;4.902;2023-05-28T04:32:06;23.90;;;10.82;;
20653;SDS011;21083;50.898;4.902;2023-05-28T04:34:38;22.88;;;10.43;;
20653;SDS011;21083;50.898;4.902;2023-05-28T04:37:06;27.70;;;10.73;;
20653;SDS011;21083;50.898;4.902;2023-05-28T04:39:33;25.80;;;10.93;;
20653;SDS011;21083;50.898;4.902;2023-05-28T04:42:00;25.30;;;10.75;;
20653;SDS011;21083;50.898;4.902;2023-05-28T04:44:28;25.27;;;10.77;;
20653;SDS011;21083;50.898;4.902;2023-05-28T04:46:56;23.38;;;10.77;;
20653;SDS011;21083;50.898;4.902;2023-05-28T04:49:24;23.13;;;10.63;;
20653;SDS011;21083;50.898;4.902;2023-05-28T04:51:52;24.48;;;10.63;;
20653;SDS011;21083;50.898;4.902;2023-05-28T04:54:19;23.60;;;11.45;;
20653;SDS011;21083;50.898;4.902;2023-05-28T04:56:46;26.25;;;11.77;;
20653;SDS011;21083;50.898;4.902;2023-05-28T04:59:13;23.42;;;11.18;;
20653;SDS011;21083;50.898;4.902;2023-05-28T05:01:41;25.58;;;10.70;;
20653;SDS011;21083;50.898;4.902;2023-05-28T05:04:08;26.20;;;12.02;;
20653;SDS011;21083;50.898;4.902;2023-05-28T05:06:34;27.50;;;11.25;;
20653;SDS011;21083;50.898;4.902;2023-05-28T05:09:03;27.55;;;11.77;;
20653;SDS011;21083;50.898;4.902;2023-05-28T05:11:30;27.10;;;11.93;;
20653;SDS011;21083;50.898;4.902;2023-05-28T05:13:57;27.02;;;12.02;;
20653;SDS011;21083;50.898;4.902;2023-05-28T05:16:24;25.85;;;10.90;;
20653;SDS011;21083;50.898;4.902;2023-05-28T05:18:51;26.63;;;10.75;;
20653;SDS011;21083;50.898;4.902;2023-05-28T05:21:18;27.77;;;11.02;;
20653;SDS011;21083;50.898;4.902;2023-05-28T05:23:45;26.15;;;11.82;;
20653;SDS011;21083;50.898;4.902;2023-05-28T05:26:14;23.38;;;11.40;;
20653;SDS011;21083;50.898;4.902;2023-05-28T05:28:42;26.33;;;12.32;;
20653;SDS011;21083;50.898;4.902;2023-05-28T05:31:09;29.80;;;12.85;;
20653;SDS011;21083;50.898;4.902;2023-05-28T05:33:37;25.33;;;12.00;;
20653;SDS011;21083;50.898;4.902;2023-05-28T05:36:04;27.90;;;13.05;;
20653;SDS011;21083;50.898;4.902;2023-05-28T05:38:31;26.17;;;12.07;;
20653;SDS011;21083;50.898;4.902;2023-05-28T05:40:58;30.65;;;12.15;;
20653;SDS011;21083;50.898;4.902;2023-05-28T05:43:27;28.58;;;13.32;;
20653;SDS011;21083;50.898;4.902;2023-05-28T05:45:54;33.00;;;11.57;;
20653;SDS011;21083;50.898;4.902;2023-05-28T05:48:21;29.55;;;12.75;;
20653;SDS011;21083;50.898;4.902;2023-05-28T05:50:52;23.67;;;11.15;;
20653;SDS011;21083;50.898;4.902;2023-05-28T05:53:20;27.05;;;12.23;;
20653;SDS011;21083;50.898;4.902;2023-05-28T05:55:47;31.15;;;11.98;;
20653;SDS011;21083;50.898;4.902;2023-05-28T05:58:15;28.25;;;10.90;;
20653;SDS011;21083;50.898;4.902;2023-05-28T06:00:43;25.50;;;11.13;;
20653;SDS011;21083;50.898;4.902;2023-05-28T06:03:10;32.58;;;12.80;;
20653;SDS011;21083;50.898;4.902;2023-05-28T06:05:37;29.48;;;12.40;;
20653;SDS011;21083;50.898;4.902;2023-05-28T06:08:04;30.67;;;11.82;;
20653;SDS011;21083;50.898;4.902;2023-05-28T06:10:31;21.80;;;10.63;;
20653;SDS011;21083;50.898;4.902;2023-05-28T06:12:58;28.73;;;11.80;;
20653;SDS011;21083;50.898;4.902;2023-05-28T06:15:26;33.80;;;12.23;;
20653;SDS011;21083;50.898;4.902;2023-05-28T06:17:55;23.30;;;11.70;;
20653;SDS011;21083;50.898;4.902;2023-05-28T06:20:22;28.15;;;11.73;;
20653;SDS011;21083;50.898;4.902;2023-05-28T06:22:49;24.13;;;12.18;;
20653;SDS011;21083;50.898;4.902;2023-05-28T06:25:17;29.58;;;11.43;;
20653;SDS011;21083;50.898;4.902;2023-05-28T06:27:46;30.23;;;12.43;;
20653;SDS011;21083;50.898;4.902;2023-05-28T06:30:13;27.80;;;13.02;;
20653;SDS011;21083;50.898;4.902;2023-05-28T06:32:41;26.23;;;12.55;;
20653;SDS011;21083;50.898;4.902;2023-05-28T06:35:10;28.27;;;12.18;;
20653;SDS011;21083;50.898;4.902;2023-05-28T06:37:37;26.30;;;12.20;;
20653;SDS011;21083;50.898;4.902;2023-05-28T06:40:04;26.30;;;12.55;;
20653;SDS011;21083;50.898;4.902;2023-05-28T06:42:32;29.77;;;12.27;;
20653;SDS011;21083;50.898;4.902;2023-05-28T06:44:59;26.88;;;12.15;;
20653;SDS011;21083;50.898;4.902;2023-05-28T06:47:26;30.08;;;12.52;;
20653;SDS011;21083;50.898;4.902;2023-05-28T06:49:53;28.20;;;12.18;;
20653;SDS011;21083;50.898;4.902;2023-05-28T06:52:22;25.00;;;11.68;;
20653;SDS011;21083;50.898;4.902;2023-05-28T06:54:48;32.55;;;12.57;;
20653;SDS011;21083;50.898;4.902;2023-05-28T06:57:18;27.23;;;10.55;;
20653;SDS011;21083;50.898;4.902;2023-05-28T06:59:45;25.65;;;12.80;;
20653;SDS011;21083;50.898;4.902;2023-05-28T07:02:12;29.25;;;12.68;;
20653;SDS011;21083;50.898;4.902;2023-05-28T07:04:40;28.50;;;12.90;;
20653;SDS011;21083;50.898;4.902;2023-05-28T07:07:07;29.38;;;11.70;;
20653;SDS011;21083;50.898;4.902;2023-05-28T07:09:35;21.63;;;10.35;;
20653;SDS011;21083;50.898;4.902;2023-05-28T07:12:02;24.70;;;11.25;;
20653;SDS011;21083;50.898;4.902;2023-05-28T07:14:29;26.27;;;11.38;;
20653;SDS011;21083;50.898;4.902;2023-05-28T07:16:56;29.42;;;12.10;;
20653;SDS011;21083;50.898;4.902;2023-05-28T07:19:23;28.38;;;11.55;;
20653;SDS011;21083;50.898;4.902;2023-05-28T07:21:50;28.20;;;12.35;;
20653;SDS011;21083;50.898;4.902;2023-05-28T07:24:17;27.67;;;11.57;;
20653;SDS011;21083;50.898;4.902;2023-05-28T07:26:46;27.15;;;10.13;;
20653;SDS011;21083;50.898;4.902;2023-05-28T07:29:13;25.02;;;12.40;;
20653;SDS011;21083;50.898;4.902;2023-05-28T07:31:43;21.05;;;11.30;;
20653;SDS011;21083;50.898;4.902;2023-05-28T07:34:10;24.75;;;11.40;;
20653;SDS011;21083;50.898;4.902;2023-05-28T07:36:37;21.88;;;10.65;;
20653;SDS011;21083;50.898;4.902;2023-05-28T07:39:07;22.63;;;10.27;;
20653;SDS011;21083;50.898;4.902;2023-05-28T07:41:36;21.08;;;10.00;;
20653;SDS011;21083;50.898;4.902;2023-05-28T07:44:05;26.33;;;10.10;;
20653;SDS011;21083;50.898;4.902;2023-05-28T07:46:34;47.33;;;11.07;;
20653;SDS011;21083;50.898;4.902;2023-05-28T07:49:01;21.27;;;9.77;;
20653;SDS011;21083;50.898;4.902;2023-05-28T07:51:28;25.65;;;9.80;;
20653;SDS011;21083;50.898;4.902;2023-05-28T07:53:58;24.38;;;9.95;;
20653;SDS011;21083;50.898;4.902;2023-05-28T07:56:26;24.10;;;9.20;;
20653;SDS011;21083;50.898;4.902;2023-05-28T07:58:53;21.25;;;9.43;;
20653;SDS011;21083;50.898;4.902;2023-05-28T08:01:22;20.05;;;9.93;;
20653;SDS011;21083;50.898;4.902;2023-05-28T08:03:50;26.40;;;11.07;;
20653;SDS011;21083;50.898;4.902;2023-05-28T08:06:19;22.60;;;9.32;;
20653;SDS011;21083;50.898;4.902;2023-05-28T08:08:47;26.85;;;9.45;;
20653;SDS011;21083;50.898;4.902;2023-05-28T08:13:44;22.27;;;9.60;;
20653;SDS011;21083;50.898;4.902;2023-05-28T08:16:17;24.70;;;9.50;;
20653;SDS011;21083;50.898;4.902;2023-05-28T08:18:46;25.17;;;9.52;;
20653;SDS011;21083;50.898;4.902;2023-05-28T08:21:13;25.40;;;10.38;;
20653;SDS011;21083;50.898;4.902;2023-05-28T08:23:40;23.83;;;8.80;;
20653;SDS011;21083;50.898;4.902;2023-05-28T08:26:07;31.13;;;9.73;;
20653;SDS011;21083;50.898;4.902;2023-05-28T08:28:35;22.08;;;9.57;;
20653;SDS011;21083;50.898;4.902;2023-05-28T08:31:02;24.25;;;8.20;;
20653;SDS011;21083;50.898;4.902;2023-05-28T08:33:30;19.40;;;8.10;;
20653;SDS011;21083;50.898;4.902;2023-05-28T08:35:59;16.25;;;7.60;;
20653;SDS011;21083;50.898;4.902;2023-05-28T08:38:27;21.35;;;8.95;;
20653;SDS011;21083;50.898;4.902;2023-05-28T08:40:55;21.77;;;9.27;;
20653;SDS011;21083;50.898;4.902;2023-05-28T08:43:23;22.83;;;7.97;;
20653;SDS011;21083;50.898;4.902;2023-05-28T08:45:50;22.00;;;8.23;;
20653;SDS011;21083;50.898;4.902;2023-05-28T08:48:18;20.33;;;7.63;;
20653;SDS011;21083;50.898;4.902;2023-05-28T08:50:46;19.45;;;7.70;;
20653;SDS011;21083;50.898;4.902;2023-05-28T08:53:19;21.35;;;7.05;;
20653;SDS011;21083;50.898;4.902;2023-05-28T08:55:48;21.05;;;7.65;;
20653;SDS011;21083;50.898;4.902;2023-05-28T08:58:16;19.38;;;7.05;;
20653;SDS011;21083;50.898;4.902;2023-05-28T09:00:43;20.88;;;7.82;;
20653;SDS011;21083;50.898;4.902;2023-05-28T09:03:10;19.73;;;7.22;;
20653;SDS011;21083;50.898;4.902;2023-05-28T09:05:37;21.75;;;7.43;;
20653;SDS011;21083;50.898;4.902;2023-05-28T09:08:05;17.83;;;7.28;;
20653;SDS011;21083;50.898;4.902;2023-05-28T09:10:35;19.80;;;6.95;;
20653;SDS011;21083;50.898;4.902;2023-05-28T09:13:02;22.65;;;6.57;;
20653;SDS011;21083;50.898;4.902;2023-05-28T09:15:29;20.02;;;6.85;;
20653;SDS011;21083;50.898;4.902;2023-05-28T09:18:03;19.42;;;6.95;;
20653;SDS011;21083;50.898;4.902;2023-05-28T09:20:31;16.85;;;6.43;;
20653;SDS011;21083;50.898;4.902;2023-05-28T09:22:58;16.20;;;6.53;;
20653;SDS011;21083;50.898;4.902;2023-05-28T09:25:26;19.52;;;6.97;;
20653;SDS011;21083;50.898;4.902;2023-05-28T09:27:55;18.15;;;6.38;;
20653;SDS011;21083;50.898;4.902;2023-05-28T09:30:25;19.35;;;6.72;;
20653;SDS011;21083;50.898;4.902;2023-05-28T09:33:00;18.63;;;6.55;;
20653;SDS011;21083;50.898;4.902;2023-05-28T09:35:28;19.42;;;6.47;;
20653;SDS011;21083;50.898;4.902;2023-05-28T09:37:59;19.60;;;6.85;;
20653;SDS011;21083;50.898;4.902;2023-05-28T09:40:27;22.52;;;6.20;;
20653;SDS011;21083;50.898;4.902;2023-05-28T09:42:56;16.27;;;6.53;;
20653;SDS011;21083;50.898;4.902;2023-05-28T09:45:23;19.05;;;6.53;;
20653;SDS011;21083;50.898;4.902;2023-05-28T09:47:51;15.68;;;5.90;;
20653;SDS011;21083;50.898;4.902;2023-05-28T09:50:19;20.83;;;6.47;;
20653;SDS011;21083;50.898;4.902;2023-05-28T09:52:46;17.95;;;6.40;;
20653;SDS011;21083;50.898;4.902;2023-05-28T09:55:14;16.48;;;5.53;;
20653;SDS011;21083;50.898;4.902;2023-05-28T09:57:44;23.60;;;5.80;;
20653;SDS011;21083;50.898;4.902;2023-05-28T10:00:17;14.40;;;5.97;;
20653;SDS011;21083;50.898;4.902;2023-05-28T10:02:55;16.48;;;5.68;;
20653;SDS011;21083;50.898;4.902;2023-05-28T10:05:35;16.55;;;5.35;;
20653;SDS011;21083;50.898;4.902;2023-05-28T10:08:05;22.55;;;5.60;;
20653;SDS011;21083;50.898;4.902;2023-05-28T10:10:33;15.23;;;5.32;;
20653;SDS011;21083;50.898;4.902;2023-05-28T10:13:01;16.95;;;5.03;;
20653;SDS011;21083;50.898;4.902;2023-05-28T10:15:30;16.95;;;5.57;;
20653;SDS011;21083;50.898;4.902;2023-05-28T10:17:57;16.92;;;5.88;;
20653;SDS011;21083;50.898;4.902;2023-05-28T10:20:25;20.35;;;5.43;;
20653;SDS011;21083;50.898;4.902;2023-05-28T10:22:52;12.00;;;5.35;;
20653;SDS011;21083;50.898;4.902;2023-05-28T10:25:20;20.67;;;6.28;;
20653;SDS011;21083;50.898;4.902;2023-05-28T10:27:47;14.40;;;6.05;;
20653;SDS011;21083;50.898;4.902;2023-05-28T10:33:16;13.80;;;5.20;;
20653;SDS011;21083;50.898;4.902;2023-05-28T10:35:51;18.08;;;6.15;;
20653;SDS011;21083;50.898;4.902;2023-05-28T10:38:20;16.92;;;5.85;;
20653;SDS011;21083;50.898;4.902;2023-05-28T10:40:47;15.50;;;5.05;;
20653;SDS011;21083;50.898;4.902;2023-05-28T10:46:15;16.10;;;5.20;;
20653;SDS011;21083;50.898;4.902;2023-05-28T10:51:56;13.65;;;4.72;;
20653;SDS011;21083;50.898;4.902;2023-05-28T10:54:38;14.15;;;4.93;;
20653;SDS011;21083;50.898;4.902;2023-05-28T10:57:10;15.65;;;5.57;;
20653;SDS011;21083;50.898;4.902;2023-05-28T10:59:40;14.70;;;4.90;;
20653;SDS011;21083;50.898;4.902;2023-05-28T11:02:09;14.88;;;5.75;;
20653;SDS011;21083;50.898;4.902;2023-05-28T11:04:38;15.80;;;5.00;;
20653;SDS011;21083;50.898;4.902;2023-05-28T11:07:06;17.50;;;5.43;;
20653;SDS011;21083;50.898;4.902;2023-05-28T11:09:38;15.68;;;5.20;;
20653;SDS011;21083;50.898;4.902;2023-05-28T11:12:05;18.63;;;5.32;;
20653;SDS011;21083;50.898;4.902;2023-05-28T11:14:33;17.25;;;5.18;;
20653;SDS011;21083;50.898;4.902;2023-05-28T11:17:05;15.77;;;4.85;;
20653;SDS011;21083;50.898;4.902;2023-05-28T11:19:44;11.60;;;4.50;;
20653;SDS011;21083;50.898;4.902;2023-05-28T11:22:16;13.68;;;4.80;;
20653;SDS011;21083;50.898;4.902;2023-05-28T11:24:49;15.95;;;4.90;;
20653;SDS011;21083;50.898;4.902;2023-05-28T11:27:21;15.80;;;5.55;;
20653;SDS011;21083;50.898;4.902;2023-05-28T11:29:51;14.10;;;5.15;;
20653;SDS011;21083;50.898;4.902;2023-05-28T11:32:19;14.07;;;5.28;;
20653;SDS011;21083;50.898;4.902;2023-05-28T11:34:50;13.45;;;4.55;;
20653;SDS011;21083;50.898;4.902;2023-05-28T11:37:22;13.25;;;4.47;;
20653;SDS011;21083;50.898;4.902;2023-05-28T11:39:51;15.95;;;4.78;;
20653;SDS011;21083;50.898;4.902;2023-05-28T11:42:19;16.13;;;4.07;;
20653;SDS011;21083;50.898;4.902;2023-05-28T11:44:47;14.45;;;4.57;;
20653;SDS011;21083;50.898;4.902;2023-05-28T11:47:18;13.10;;;4.93;;
20653;SDS011;21083;50.898;4.902;2023-05-28T11:49:45;19.30;;;5.47;;
20653;SDS011;21083;50.898;4.902;2023-05-28T11:52:15;14.45;;;4.13;;
20653;SDS011;21083;50.898;4.902;2023-05-28T11:54:48;13.15;;;4.78;;
20653;SDS011;21083;50.898;4.902;2023-05-28T11:57:20;12.48;;;4.50;;
20653;SDS011;21083;50.898;4.902;2023-05-28T11:59:54;13.90;;;4.50;;
20653;SDS011;21083;50.898;4.902;2023-05-28T12:02:26;14.80;;;4.97;;
20653;SDS011;21083;50.898;4.902;2023-05-28T12:04:53;17.13;;;5.22;;
20653;SDS011;21083;50.898;4.902;2023-05-28T12:07:28;14.25;;;4.50;;
20653;SDS011;21083;50.898;4.902;2023-05-28T12:10:04;13.63;;;5.03;;
20653;SDS011;21083;50.898;4.902;2023-05-28T12:12:38;12.43;;;5.00;;
20653;SDS011;21083;50.898;4.902;2023-05-28T12:15:06;11.30;;;4.50;;
20653;SDS011;21083;50.898;4.902;2023-05-28T12:17:34;12.90;;;4.43;;
20653;SDS011;21083;50.898;4.902;2023-05-28T12:20:05;14.82;;;4.90;;
20653;SDS011;21083;50.898;4.902;2023-05-28T12:23:00;12.45;;;4.68;;
20653;SDS011;21083;50.898;4.902;2023-05-28T12:25:28;16.92;;;4.72;;
20653;SDS011;21083;50.898;4.902;2023-05-28T12:28:00;17.98;;;5.45;;
20653;SDS011;21083;50.898;4.902;2023-05-28T12:30:28;14.32;;;4.65;;
20653;SDS011;21083;50.898;4.902;2023-05-28T12:32:55;13.38;;;5.00;;
20653;SDS011;21083;50.898;4.902;2023-05-28T12:35:22;16.90;;;5.32;;
20653;SDS011;21083;50.898;4.902;2023-05-28T12:37:49;13.77;;;5.18;;
20653;SDS011;21083;50.898;4.902;2023-05-28T12:40:17;13.85;;;5.05;;
20653;SDS011;21083;50.898;4.902;2023-05-28T12:42:46;13.68;;;4.70;;
20653;SDS011;21083;50.898;4.902;2023-05-28T12:45:13;16.58;;;5.05;;
20653;SDS011;21083;50.898;4.902;2023-05-28T12:47:42;11.38;;;4.70;;
20653;SDS011;21083;50.898;4.902;2023-05-28T12:50:09;13.88;;;5.15;;
20653;SDS011;21083;50.898;4.902;2023-05-28T12:52:38;13.20;;;4.30;;
20653;SDS011;21083;50.898;4.902;2023-05-28T12:55:06;12.43;;;4.82;;
20653;SDS011;21083;50.898;4.902;2023-05-28T12:57:37;13.80;;;5.22;;
20653;SDS011;21083;50.898;4.902;2023-05-28T13:00:07;11.57;;;4.38;;
20653;SDS011;21083;50.898;4.902;2023-05-28T13:02:36;10.18;;;4.30;;
20653;SDS011;21083;50.898;4.902;2023-05-28T13:05:03;15.68;;;5.82;;
20653;SDS011;21083;50.898;4.902;2023-05-28T13:07:30;14.07;;;4.90;;
20653;SDS011;21083;50.898;4.902;2023-05-28T13:09:58;15.48;;;4.47;;
20653;SDS011;21083;50.898;4.902;2023-05-28T13:12:25;12.00;;;4.80;;
20653;SDS011;21083;50.898;4.902;2023-05-28T13:14:53;14.90;;;4.95;;
20653;SDS011;21083;50.898;4.902;2023-05-28T13:17:20;12.35;;;4.97;;
20653;SDS011;21083;50.898;4.902;2023-05-28T13:19:47;17.50;;;5.13;;
20653;SDS011;21083;50.898;4.902;2023-05-28T13:22:14;11.02;;;4.25;;
20653;SDS011;21083;50.898;4.902;2023-05-28T13:24:41;10.88;;;4.47;;
20653;SDS011;21083;50.898;4.902;2023-05-28T13:27:08;17.63;;;4.95;;
20653;SDS011;21083;50.898;4.902;2023-05-28T13:29:36;12.68;;;4.78;;
20653;SDS011;21083;50.898;4.902;2023-05-28T13:32:05;12.02;;;4.63;;
20653;SDS011;21083;50.898;4.902;2023-05-28T13:34:35;14.57;;;5.32;;
20653;SDS011;21083;50.898;4.902;2023-05-28T13:37:04;15.70;;;4.55;;
20653;SDS011;21083;50.898;4.902;2023-05-28T13:39:31;15.05;;;4.78;;
20653;SDS011;21083;50.898;4.902;2023-05-28T13:41:58;12.90;;;5.07;;
20653;SDS011;21083;50.898;4.902;2023-05-28T13:44:25;13.30;;;4.63;;
20653;SDS011;21083;50.898;4.902;2023-05-28T13:46:54;15.30;;;4.88;;
20653;SDS011;21083;50.898;4.902;2023-05-28T13:49:22;12.48;;;5.10;;
20653;SDS011;21083;50.898;4.902;2023-05-28T13:51:49;15.48;;;4.60;;
20653;SDS011;21083;50.898;4.902;2023-05-28T13:54:17;17.20;;;5.18;;
20653;SDS011;21083;50.898;4.902;2023-05-28T13:56:44;14.90;;;5.05;;
20653;SDS011;21083;50.898;4.902;2023-05-28T13:59:10;10.90;;;4.68;;
20653;SDS011;21083;50.898;4.902;2023-05-28T14:01:37;14.20;;;5.03;;
20653;SDS011;21083;50.898;4.902;2023-05-28T14:04:04;10.30;;;4.63;;
20653;SDS011;21083;50.898;4.902;2023-05-28T14:06:34;11.38;;;4.93;;
20653;SDS011;21083;50.898;4.902;2023-05-28T14:09:02;11.02;;;4.60;;
20653;SDS011;21083;50.898;4.902;2023-05-28T14:11:30;12.45;;;4.85;;
20653;SDS011;21083;50.898;4.902;2023-05-28T14:13:57;12.88;;;4.57;;
20653;SDS011;21083;50.898;4.902;2023-05-28T14:16:24;14.05;;;5.10;;
20653;SDS011;21083;50.898;4.902;2023-05-28T14:18:51;13.90;;;4.70;;
20653;SDS011;21083;50.898;4.902;2023-05-28T14:21:18;12.98;;;4.15;;
20653;SDS011;21083;50.898;4.902;2023-05-28T14:23:46;13.27;;;4.70;;
20653;SDS011;21083;50.898;4.902;2023-05-28T14:26:13;13.20;;;4.47;;
20653;SDS011;21083;50.898;4.902;2023-05-28T14:28:40;12.52;;;4.57;;
20653;SDS011;21083;50.898;4.902;2023-05-28T14:31:08;13.55;;;4.78;;
20653;SDS011;21083;50.898;4.902;2023-05-28T14:33:35;13.02;;;4.63;;
20653;SDS011;21083;50.898;4.902;2023-05-28T14:36:03;16.20;;;5.35;;
20653;SDS011;21083;50.898;4.902;2023-05-28T14:38:30;14.90;;;5.50;;
20653;SDS011;21083;50.898;4.902;2023-05-28T14:40:58;17.88;;;4.90;;
20653;SDS011;21083;50.898;4.902;2023-05-28T14:43:25;12.48;;;4.63;;
20653;SDS011;21083;50.898;4.902;2023-05-28T14:45:55;15.70;;;4.65;;
20653;SDS011;21083;50.898;4.902;2023-05-28T14:48:23;14.93;;;4.88;;